Time;durP1;ratioP1;P1;durP2;ratioP2;P2;SDS_P1;SDS_P2;PMS_P1;PMS_P2;Temp;Humidity;BMP_temperature;BMP_pressure;BME280_temperature;BME280_humidity;BME280_pressure;Samples;Min_cycle;Max_cycle;Signal;HPM_P1;HPM_P2
2022/12/24 00:00:08;;;;;;;26.50;11.98;;;6.20;99.90;;;;;;5072550;28;20040;-82
2022/12/24 00:02:34;;;;;;;24.38;12.80;;;6.20;99.90;;;;;;5071928;28;20087;-82
2022/12/24 00:05:01;;;;;;;22.45;11.70;;;6.20;99.90;;;;;;5088626;28;20512;-82
2022/12/24 00:07:28;;;;;;;23.05;11.00;;;6.20;99.90;;;;;;5108628;28;20121;-82
2022/12/24 00:09:55;;;;;;;20.40;10.43;;;6.20;99.90;;;;;;5088498;28;20037;-82
2022/12/24 00:12:22;;;;;;;23.33;11.38;;;6.10;99.90;;;;;;5104996;28;20173;-82
2022/12/24 00:14:49;;;;;;;20.95;10.77;;;6.20;99.90;;;;;;5088250;28;20550;-82
2022/12/24 00:17:16;;;;;;;22.88;10.73;;;6.20;99.90;;;;;;5088799;28;20404;-82
2022/12/24 00:19:43;;;;;;;23.63;12.10;;;6.20;99.90;;;;;;5071808;28;20127;-81
2022/12/24 00:22:09;;;;;;;24.42;11.68;;;6.10;99.90;;;;;;5088360;28;20044;-82
2022/12/24 00:24:36;;;;;;;22.70;10.82;;;6.20;99.90;;;;;;5088381;28;20062;-82
2022/12/24 00:27:04;;;;;;;23.50;12.07;;;6.20;99.90;;;;;;5105311;28;20135;-82
2022/12/24 00:29:32;;;;;;;23.50;11.40;;;6.20;99.90;;;;;;5088288;28;20123;-81
2022/12/24 00:31:59;;;;;;;19.67;10.95;;;6.20;99.90;;;;;;5098714;28;20450;-82
2022/12/24 00:34:26;;;;;;;20.85;10.68;;;6.20;99.90;;;;;;5125576;28;20040;-81
2022/12/24 00:36:52;;;;;;;20.60;10.95;;;6.20;99.90;;;;;;5095420;28;20040;-81
2022/12/24 00:39:19;;;;;;;19.90;10.95;;;6.20;99.90;;;;;;5078867;28;20047;-81
2022/12/24 00:41:45;;;;;;;20.27;10.63;;;6.20;99.90;;;;;;5091801;28;20072;-82
2022/12/24 00:44:12;;;;;;;20.35;11.05;;;6.20;99.90;;;;;;5092085;28;20127;-82
2022/12/24 00:46:40;;;;;;;22.90;10.90;;;6.20;99.90;;;;;;5075273;28;20037;-82
2022/12/24 00:49:07;;;;;;;19.40;10.88;;;6.20;99.90;;;;;;5092239;28;20090;-82
2022/12/24 00:51:35;;;;;;;20.88;10.95;;;6.20;99.90;;;;;;5091598;28;20049;-81
2022/12/24 00:54:02;;;;;;;20.05;10.07;;;6.10;99.90;;;;;;5075218;28;20033;-82
2022/12/24 00:56:29;;;;;;;20.40;11.10;;;6.20;99.90;;;;;;5075035;28;20042;-81
2022/12/24 00:58:55;;;;;;;20.42;10.45;;;6.20;99.90;;;;;;5107978;28;20037;-82
2022/12/24 01:01:23;;;;;;;19.88;11.30;;;6.10;99.90;;;;;;5091708;28;20090;-81
2022/12/24 01:03:50;;;;;;;20.63;11.20;;;6.20;99.90;;;;;;5103502;28;20119;-82
2022/12/24 01:06:19;;;;;;;23.38;11.13;;;6.20;99.90;;;;;;5075024;28;20036;-82
2022/12/24 01:08:49;;;;;;;23.58;11.52;;;6.20;99.90;;;;;;5074703;28;20032;-82
2022/12/24 01:11:16;;;;;;;18.55;10.60;;;6.20;99.90;;;;;;5108229;28;20040;-82
2022/12/24 01:13:43;;;;;;;19.55;11.27;;;6.20;99.90;;;;;;5074663;28;20574;-82
2022/12/24 01:16:16;;;;;;;18.40;10.63;;;6.20;99.90;;;;;;5078822;28;20041;-82
2022/12/24 01:18:43;;;;;;;22.20;11.25;;;6.10;99.90;;;;;;5108044;28;20260;-81
2022/12/24 01:21:10;;;;;;;20.90;10.60;;;6.20;99.90;;;;;;5091291;28;20044;-81
2022/12/24 01:23:36;;;;;;;19.42;10.70;;;6.20;99.90;;;;;;5091034;28;20127;-81
2022/12/24 01:26:04;;;;;;;23.90;11.07;;;6.20;99.90;;;;;;5091197;28;20062;-81
2022/12/24 01:28:31;;;;;;;21.38;10.98;;;6.20;99.90;;;;;;5091122;28;20493;-82
2022/12/24 01:30:58;;;;;;;17.60;9.95;;;6.20;99.90;;;;;;5091011;28;20037;-81
2022/12/24 01:33:28;;;;;;;17.75;10.18;;;6.20;99.90;;;;;;5090817;28;20041;-81
2022/12/24 01:35:55;;;;;;;22.40;11.10;;;6.10;99.90;;;;;;5107389;28;20496;-82
2022/12/24 01:38:21;;;;;;;19.05;10.73;;;6.20;99.90;;;;;;5091089;28;20123;-81
2022/12/24 01:43:33;;;;;;;21.58;10.73;;;6.20;99.90;;;;;;5107442;28;20059;-81
2022/12/24 01:46:20;;;;;;;19.05;10.75;;;6.20;99.90;;;;;;5090269;28;20131;-81
2022/12/24 01:48:58;;;;;;;18.98;10.93;;;6.20;99.90;;;;;;5110614;28;20040;-81
2022/12/24 01:51:46;;;;;;;23.00;10.68;;;6.20;99.90;;;;;;5110585;28;20063;-81
2022/12/24 01:54:43;;;;;;;19.48;10.30;;;6.20;99.90;;;;;;5110629;28;20052;-82
2022/12/24 01:57:19;;;;;;;20.02;10.50;;;6.20;99.90;;;;;;5099675;28;20044;-81
2022/12/24 01:59:50;;;;;;;20.60;11.18;;;6.20;99.90;;;;;;5127213;28;20044;-81
2022/12/24 02:02:17;;;;;;;17.98;10.15;;;6.10;99.90;;;;;;5110653;28;20407;-81
2022/12/24 02:05:02;;;;;;;26.25;11.35;;;6.20;99.90;;;;;;5127637;28;20079;-81
2022/12/24 02:07:29;;;;;;;19.40;10.60;;;6.20;99.90;;;;;;5110415;28;20044;-81
2022/12/24 02:09:58;;;;;;;22.35;11.45;;;6.20;99.90;;;;;;5079535;28;20115;-81
2022/12/24 02:12:30;;;;;;;23.02;11.45;;;6.20;99.90;;;;;;5090055;28;20139;-81
2022/12/24 02:14:56;;;;;;;19.85;10.93;;;6.20;99.90;;;;;;5089727;28;20040;-82
2022/12/24 02:17:46;;;;;;;24.90;11.35;;;6.20;99.90;;;;;;5056973;28;20869;-81
2022/12/24 02:20:25;;;;;;;22.25;10.65;;;6.20;99.90;;;;;;5113303;28;20048;-81
2022/12/24 02:22:57;;;;;;;20.00;11.45;;;6.20;99.90;;;;;;5110162;28;20051;-81
2022/12/24 02:25:53;;;;;;;20.83;12.15;;;6.20;99.90;;;;;;5110044;28;20052;-81
2022/12/24 02:28:59;;;;;;;23.08;10.63;;;6.20;99.90;;;;;;5080989;28;20051;-81
2022/12/24 02:32:01;;;;;;;24.27;11.55;;;6.10;99.90;;;;;;5072656;28;20055;-81
2022/12/24 02:34:44;;;;;;;21.40;10.65;;;6.20;99.90;;;;;;5109940;28;20050;-81
2022/12/24 02:37:32;;;;;;;20.90;11.18;;;6.20;99.90;;;;;;5109605;28;20550;-81
2022/12/24 02:40:13;;;;;;;21.58;11.07;;;6.20;99.90;;;;;;5109556;28;20036;-81
2022/12/24 02:42:44;;;;;;;22.52;11.30;;;6.20;99.90;;;;;;5110181;28;20063;-81
2022/12/24 02:45:15;;;;;;;22.48;11.82;;;6.20;99.90;;;;;;5112385;28;20036;-81
2022/12/24 02:47:44;;;;;;;24.88;11.60;;;6.20;99.90;;;;;;5089915;28;20076;-81
2022/12/24 02:50:13;;;;;;;24.55;12.20;;;6.20;99.90;;;;;;5089662;28;20079;-81
2022/12/24 02:52:45;;;;;;;20.95;11.52;;;6.20;99.90;;;;;;5089895;28;20044;-81
2022/12/24 02:55:30;;;;;;;23.85;12.18;;;6.20;99.90;;;;;;5105880;28;20079;-81
2022/12/24 02:58:14;;;;;;;25.98;11.55;;;6.20;99.90;;;;;;5089124;28;20539;-81
2022/12/24 03:01:17;;;;;;;25.55;12.02;;;6.20;99.90;;;;;;5089418;28;20464;-81
2022/12/24 03:03:51;;;;;;;26.08;11.63;;;6.20;99.90;;;;;;5089386;28;20048;-81
2022/12/24 03:06:43;;;;;;;22.20;11.63;;;6.20;99.90;;;;;;5106084;28;20488;-81
2022/12/24 03:09:38;;;;;;;23.08;11.23;;;6.20;99.90;;;;;;5109102;28;20484;-81
2022/12/24 03:12:20;;;;;;;30.45;12.82;;;6.20;99.90;;;;;;5109310;28;20090;-81
2022/12/24 03:14:48;;;;;;;21.38;11.68;;;6.20;99.90;;;;;;5124430;28;20028;-81
2022/12/24 03:17:16;;;;;;;33.40;12.85;;;6.20;99.90;;;;;;5072348;28;20044;-81
2022/12/24 03:19:44;;;;;;;31.98;11.73;;;6.20;99.90;;;;;;5072746;28;20110;-81
2022/12/24 03:22:12;;;;;;;27.05;12.18;;;6.20;99.90;;;;;;5072492;28;20086;-81
2022/12/24 03:24:38;;;;;;;30.33;14.10;;;6.20;99.90;;;;;;5089187;28;20040;-81
2022/12/24 03:27:07;;;;;;;28.40;12.88;;;6.30;99.90;;;;;;5072225;28;20400;-81
2022/12/24 03:29:34;;;;;;;32.10;13.95;;;6.30;99.90;;;;;;5106083;28;20041;-81
2022/12/24 03:32:03;;;;;;;34.58;15.05;;;6.30;99.90;;;;;;5089031;28;20111;-81
2022/12/24 03:34:30;;;;;;;39.08;16.98;;;6.30;99.90;;;;;;5089227;28;20072;-81
2022/12/24 03:36:57;;;;;;;42.28;18.27;;;6.40;99.90;;;;;;5089026;28;20075;-81
2022/12/24 03:39:23;;;;;;;49.30;20.83;;;6.40;99.90;;;;;;5088823;28;20136;-81
2022/12/24 03:41:50;;;;;;;52.08;23.15;;;6.60;99.90;;;;;;5072405;28;20044;-81
2022/12/24 03:44:17;;;;;;;54.38;21.73;;;6.60;99.90;;;;;;5072164;28;20131;-81
2022/12/24 03:46:43;;;;;;;48.60;20.40;;;6.60;99.90;;;;;;5072345;28;20052;-81
2022/12/24 03:49:10;;;;;;;45.75;19.35;;;6.60;99.90;;;;;;5072097;28;20044;-81
2022/12/24 03:51:37;;;;;;;44.78;19.10;;;6.60;99.90;;;;;;5088809;28;20057;-81
2022/12/24 03:54:04;;;;;;;34.30;15.75;;;6.60;99.90;;;;;;5089025;28;20811;-81
2022/12/24 03:56:31;;;;;;;42.25;16.20;;;6.70;99.90;;;;;;5090533;28;20090;-81
2022/12/24 03:58:57;;;;;;;34.60;13.85;;;6.70;99.90;;;;;;5075793;28;20036;-81
2022/12/24 04:01:24;;;;;;;40.08;14.65;;;6.80;99.90;;;;;;5108507;28;20040;-81
2022/12/24 04:03:51;;;;;;;32.85;13.07;;;6.80;99.90;;;;;;5108848;28;20044;-81
2022/12/24 04:06:17;;;;;;;26.02;11.75;;;6.80;99.90;;;;;;5075554;28;20411;-81
2022/12/24 04:08:44;;;;;;;33.65;12.55;;;6.90;99.90;;;;;;5088574;28;20049;-81
2022/12/24 04:11:13;;;;;;;24.02;10.80;;;7.00;99.90;;;;;;5074721;28;20048;-82
2022/12/24 04:13:40;;;;;;;26.83;10.88;;;7.00;99.90;;;;;;5092525;28;20044;-81
2022/12/24 04:16:09;;;;;;;22.88;9.25;;;7.10;99.90;;;;;;5092933;28;20062;-81
2022/12/24 04:18:37;;;;;;;30.10;10.82;;;7.20;99.90;;;;;;5108925;28;20036;-81
2022/12/24 04:21:06;;;;;;;27.55;10.05;;;7.20;99.90;;;;;;5108890;28;20101;-81
2022/12/24 04:23:35;;;;;;;29.15;10.15;;;7.20;99.90;;;;;;5092403;28;20052;-82
2022/12/24 04:26:04;;;;;;;26.40;9.60;;;7.30;99.90;;;;;;5108940;28;20535;-81
2022/12/24 04:28:32;;;;;;;21.15;9.38;;;7.30;99.90;;;;;;5125427;28;20408;-81
2022/12/24 04:31:07;;;;;;;28.35;9.35;;;7.40;99.90;;;;;;5108961;28;20491;-81
2022/12/24 04:33:34;;;;;;;25.80;9.30;;;7.40;99.90;;;;;;5108727;28;20040;-81
2022/12/24 04:36:03;;;;;;;25.00;9.05;;;7.40;99.90;;;;;;5108833;28;20045;-81
2022/12/24 04:38:30;;;;;;;25.38;9.30;;;7.40;99.90;;;;;;5125570;28;20036;-81
2022/12/24 04:41:01;;;;;;;31.77;9.15;;;7.40;99.90;;;;;;5095405;28;20423;-81
2022/12/24 04:43:28;;;;;;;24.75;7.80;;;7.50;99.90;;;;;;5112605;28;20036;-81
2022/12/24 04:45:56;;;;;;;25.75;8.88;;;7.40;99.90;;;;;;5095591;28;20072;-81
2022/12/24 04:48:22;;;;;;;30.45;8.32;;;7.50;99.90;;;;;;5111728;28;20044;-81
2022/12/24 04:50:49;;;;;;;28.17;8.48;;;7.50;99.90;;;;;;5075412;28;20057;-81
2022/12/24 04:53:16;;;;;;;30.88;7.25;;;7.50;99.90;;;;;;5091779;28;20049;-82
2022/12/24 04:55:45;;;;;;;20.55;6.80;;;7.50;99.90;;;;;;5102250;28;20049;-81
2022/12/24 04:58:13;;;;;;;28.85;6.97;;;7.50;99.90;;;;;;5115718;28;20050;-82
2022/12/24 05:00:40;;;;;;;33.53;5.65;;;7.60;99.90;;;;;;5110164;28;20092;-81
2022/12/24 05:03:07;;;;;;;26.38;4.75;;;7.60;99.90;;;;;;5096571;28;20044;-82
2022/12/24 05:05:33;;;;;;;30.20;4.93;;;7.70;99.90;;;;;;5098125;28;20048;-81
2022/12/24 05:08:00;;;;;;;31.98;5.55;;;7.70;99.90;;;;;;5115230;28;20077;-82
2022/12/24 05:10:27;;;;;;;41.08;4.78;;;7.70;99.90;;;;;;5083834;28;20490;-82
2022/12/24 05:12:53;;;;;;;39.95;4.90;;;7.70;99.90;;;;;;5091835;28;20037;-82
2022/12/24 05:15:20;;;;;;;29.73;4.30;;;7.70;99.90;;;;;;5091353;28;20033;-82
2022/12/24 05:17:47;;;;;;;28.00;3.58;;;7.70;99.90;;;;;;5091594;28;20040;-82
2022/12/24 05:20:14;;;;;;;33.25;4.45;;;7.70;99.90;;;;;;5108115;28;20075;-82
2022/12/24 05:28:17;;;;;;;33.40;6.78;;;7.70;99.90;;;;;;5107879;28;20492;-82
2022/12/24 05:30:44;;;;;;;27.85;3.63;;;7.60;99.90;;;;;;5090915;28;20120;-82
2022/12/24 05:33:11;;;;;;;34.08;4.38;;;7.70;99.90;;;;;;5116628;28;20036;-81
2022/12/24 05:35:37;;;;;;;34.63;3.80;;;7.60;99.90;;;;;;5074092;28;20036;-81
2022/12/24 05:38:04;;;;;;;30.60;3.53;;;7.60;99.90;;;;;;5074386;28;20044;-81
2022/12/24 05:40:31;;;;;;;36.28;4.00;;;7.70;99.90;;;;;;5074054;28;20087;-82
2022/12/24 05:42:57;;;;;;;36.78;3.90;;;7.70;99.90;;;;;;5074120;28;20127;-82
2022/12/24 05:45:24;;;;;;;35.15;4.13;;;7.70;99.90;;;;;;5074482;28;20527;-82
2022/12/24 05:47:51;;;;;;;27.60;4.10;;;7.70;99.90;;;;;;5074181;28;20487;-81
2022/12/24 05:50:17;;;;;;;27.33;4.43;;;7.60;99.90;;;;;;5107528;28;20060;-81
2022/12/24 05:52:44;;;;;;;28.00;3.30;;;7.70;99.90;;;;;;5084859;28;20150;-81
2022/12/24 05:55:11;;;;;;;39.22;5.00;;;7.70;99.90;;;;;;5087541;28;20040;-82
2022/12/24 05:57:39;;;;;;;26.25;3.92;;;7.60;99.90;;;;;;5090451;28;20036;-82
2022/12/24 06:00:06;;;;;;;34.92;3.97;;;7.70;99.90;;;;;;5107161;28;20047;-82
2022/12/24 06:02:33;;;;;;;26.67;3.65;;;7.70;99.90;;;;;;5102788;28;20048;-82
2022/12/24 06:04:59;;;;;;;35.10;4.30;;;7.70;99.90;;;;;;5077368;28;20043;-82
2022/12/24 06:07:26;;;;;;;36.85;4.57;;;7.70;99.90;;;;;;5077038;28;20123;-82
2022/12/24 06:09:53;;;;;;;31.85;4.85;;;7.70;99.90;;;;;;5093940;28;20046;-82
2022/12/24 06:12:19;;;;;;;37.25;4.47;;;7.70;99.90;;;;;;5090556;28;20033;-82
2022/12/24 06:14:46;;;;;;;36.38;4.57;;;7.70;99.90;;;;;;5090427;28;20044;-82
2022/12/24 06:17:13;;;;;;;28.88;4.05;;;7.70;99.90;;;;;;5073737;28;20044;-82
2022/12/24 06:19:39;;;;;;;28.73;4.18;;;7.70;99.90;;;;;;5090170;28;20063;-81
2022/12/24 06:22:06;;;;;;;37.55;5.00;;;7.70;99.90;;;;;;5090099;28;20121;-82
2022/12/24 06:24:32;;;;;;;34.20;4.13;;;7.70;99.90;;;;;;5073636;28;20404;-82
2022/12/24 06:26:59;;;;;;;28.00;4.05;;;7.70;99.90;;;;;;5073382;28;20036;-82
2022/12/24 06:29:26;;;;;;;33.67;4.90;;;7.70;99.90;;;;;;5073515;28;20075;-82
2022/12/24 06:31:52;;;;;;;41.30;4.82;;;7.70;99.90;;;;;;5073270;28;20048;-81
2022/12/24 06:34:19;;;;;;;32.67;4.07;;;7.70;99.90;;;;;;5072959;28;20045;-82
2022/12/24 06:36:46;;;;;;;42.45;5.35;;;7.70;99.90;;;;;;5073003;28;20083;-81
2022/12/24 06:39:13;;;;;;;39.95;8.80;;;7.70;99.90;;;;;;5073110;28;20048;-81
2022/12/24 06:41:39;;;;;;;52.45;15.07;;;7.70;99.90;;;;;;5073102;28;20042;-81
2022/12/24 06:44:07;;;;;;;59.58;18.05;;;7.80;99.90;;;;;;5106316;28;20040;-81
2022/12/24 06:46:34;;;;;;;63.28;14.30;;;7.80;99.90;;;;;;5089457;28;20053;-82
2022/12/24 06:49:00;;;;;;;45.28;10.77;;;7.80;99.90;;;;;;5072867;28;20037;-81
2022/12/24 06:51:27;;;;;;;30.30;6.53;;;7.80;99.90;;;;;;5072889;28;20056;-82
2022/12/24 06:53:54;;;;;;;37.47;5.97;;;7.80;99.90;;;;;;5095394;28;20058;-81
2022/12/24 06:56:21;;;;;;;40.17;6.05;;;7.80;99.90;;;;;;5093287;28;20036;-81
2022/12/24 06:58:48;;;;;;;41.95;6.00;;;7.80;99.90;;;;;;5109324;28;20040;-82
2022/12/24 07:01:16;;;;;;;32.35;5.13;;;7.80;99.90;;;;;;5093297;28;20043;-82
2022/12/24 07:03:43;;;;;;;52.75;5.70;;;7.80;99.90;;;;;;5107531;28;20131;-82
2022/12/24 07:06:24;;;;;;;41.92;4.97;;;7.80;99.90;;;;;;5093262;28;20477;-82
2022/12/24 07:08:51;;;;;;;29.60;4.53;;;7.80;99.90;;;;;;5109257;28;20044;-82
2022/12/24 07:11:18;;;;;;;44.28;4.95;;;7.80;99.90;;;;;;5109424;28;20542;-82
2022/12/24 07:13:46;;;;;;;42.33;4.90;;;7.80;99.90;;;;;;5092527;28;20123;-82
2022/12/24 07:16:12;;;;;;;33.13;4.63;;;7.80;99.90;;;;;;5089206;28;20040;-82
2022/12/24 07:18:39;;;;;;;34.33;4.95;;;7.80;99.90;;;;;;5072678;28;20044;-81
2022/12/24 07:21:06;;;;;;;42.80;6.95;;;7.80;99.90;;;;;;5057730;28;20063;-82
2022/12/24 07:23:33;;;;;;;32.30;6.03;;;7.80;99.90;;;;;;5072620;28;20119;-81
2022/12/24 07:26:04;;;;;;;41.90;6.72;;;7.80;99.90;;;;;;5089052;28;20036;-82
2022/12/24 07:28:31;;;;;;;43.97;6.40;;;7.80;99.90;;;;;;5089010;28;20127;-81
2022/12/24 07:30:58;;;;;;;39.90;5.80;;;7.80;99.90;;;;;;5072220;28;20120;-81
2022/12/24 07:33:25;;;;;;;39.30;6.50;;;7.80;99.90;;;;;;5072396;28;20140;-82
2022/12/24 07:36:06;;;;;;;37.00;4.50;;;7.80;99.90;;;;;;5092243;28;20118;-81
2022/12/24 07:38:34;;;;;;;38.20;4.75;;;7.80;99.90;;;;;;5119141;28;20032;-81
2022/12/24 07:41:01;;;;;;;36.92;4.88;;;7.90;99.90;;;;;;5088771;28;20119;-82
2022/12/24 07:43:27;;;;;;;42.20;5.53;;;7.90;99.90;;;;;;5104611;28;20127;-81
2022/12/24 07:45:58;;;;;;;35.03;3.95;;;7.90;99.90;;;;;;5096270;28;20040;-81
2022/12/24 07:48:26;;;;;;;36.25;4.63;;;7.90;99.90;;;;;;5096174;28;20522;-81
2022/12/24 07:50:53;;;;;;;32.03;5.47;;;7.90;99.90;;;;;;5135936;28;20127;-81
2022/12/24 07:53:20;;;;;;;53.63;5.53;;;7.90;99.90;;;;;;5113819;28;20123;-82
2022/12/24 07:55:47;;;;;;;39.42;4.82;;;7.90;99.90;;;;;;5113246;28;20492;-81
2022/12/24 07:58:13;;;;;;;35.13;5.57;;;7.90;99.90;;;;;;5084992;28;20047;-82
2022/12/24 08:00:40;;;;;;;41.45;5.68;;;7.90;99.90;;;;;;5086269;28;20403;-82
2022/12/24 08:03:16;;;;;;;38.90;5.38;;;7.90;99.90;;;;;;5083603;28;20033;-81
2022/12/24 08:05:43;;;;;;;32.72;4.47;;;7.90;99.90;;;;;;5123996;28;20093;-81
2022/12/24 08:08:10;;;;;;;38.10;5.90;;;7.90;99.90;;;;;;5133310;28;20039;-81
2022/12/24 08:10:41;;;;;;;31.27;4.68;;;7.80;99.90;;;;;;5103264;28;20556;-81
2022/12/24 08:13:08;;;;;;;38.30;5.68;;;7.80;99.90;;;;;;5112941;28;20040;-81
2022/12/24 08:15:35;;;;;;;34.42;6.60;;;7.80;99.90;;;;;;5116088;28;20047;-81
2022/12/24 08:18:02;;;;;;;39.58;7.30;;;7.70;99.90;;;;;;5079923;28;20043;-81
2022/12/24 08:20:28;;;;;;;40.47;7.22;;;7.70;99.90;;;;;;5100934;28;20508;-81
2022/12/24 08:22:55;;;;;;;45.38;7.45;;;7.70;99.90;;;;;;5107793;28;20109;-82
2022/12/24 08:25:22;;;;;;;41.83;7.97;;;7.60;99.90;;;;;;5084585;28;20039;-81
2022/12/24 08:27:48;;;;;;;42.83;7.57;;;7.60;99.90;;;;;;5080932;28;20048;-81
2022/12/24 08:30:15;;;;;;;44.47;6.78;;;7.60;99.90;;;;;;5092009;28;20036;-81
2022/12/24 08:32:42;;;;;;;37.08;7.57;;;7.60;99.90;;;;;;5092211;28;20401;-81
2022/12/24 08:35:08;;;;;;;39.67;7.80;;;7.60;99.90;;;;;;5091803;28;20033;-81
2022/12/24 08:37:35;;;;;;;34.63;6.30;;;7.70;99.90;;;;;;5108555;28;20127;-80
2022/12/24 08:40:02;;;;;;;36.72;6.97;;;7.70;99.90;;;;;;5091859;28;20040;-81
2022/12/24 08:42:29;;;;;;;35.28;6.95;;;7.80;99.90;;;;;;5080039;28;20040;-81
2022/12/24 08:44:55;;;;;;;37.33;7.07;;;7.70;99.90;;;;;;5091314;28;20050;-81
2022/12/24 08:47:22;;;;;;;38.08;8.77;;;7.80;99.90;;;;;;5091635;28;20408;-81
2022/12/24 08:49:49;;;;;;;28.55;8.60;;;7.80;99.90;;;;;;5091329;28;20033;-81
2022/12/24 08:52:15;;;;;;;36.15;8.88;;;7.80;99.90;;;;;;5090516;28;20076;-81
2022/12/24 08:54:42;;;;;;;47.33;9.13;;;7.90;99.90;;;;;;5090895;28;20040;-80
2022/12/24 08:57:09;;;;;;;39.30;10.38;;;8.00;99.90;;;;;;5106640;28;20051;-81
2022/12/24 08:59:38;;;;;;;40.45;10.73;;;8.00;99.90;;;;;;5057445;28;20040;-81
2022/12/24 09:02:05;;;;;;;51.20;14.02;;;8.10;99.90;;;;;;5081053;28;20041;-81
2022/12/24 09:04:32;;;;;;;53.13;15.15;;;8.10;99.90;;;;;;5093852;28;20054;-81
2022/12/24 09:06:58;;;;;;;50.33;15.23;;;8.10;99.90;;;;;;5077046;28;20051;-81
2022/12/24 09:09:27;;;;;;;40.35;14.05;;;8.10;99.90;;;;;;5102024;28;20031;-81
2022/12/24 09:11:54;;;;;;;50.25;13.68;;;8.10;99.90;;;;;;5066657;28;20045;-81
2022/12/24 09:14:21;;;;;;;52.83;13.55;;;8.20;99.90;;;;;;5057339;28;20064;-81
2022/12/24 09:16:47;;;;;;;47.17;13.35;;;8.20;99.90;;;;;;5093340;28;20043;-81
2022/12/24 09:19:14;;;;;;;46.03;10.88;;;8.20;99.90;;;;;;5096919;28;20039;-81
2022/12/24 09:21:41;;;;;;;34.65;9.40;;;8.20;99.90;;;;;;5083899;28;20037;-81
2022/12/24 09:24:07;;;;;;;38.25;8.90;;;8.20;99.90;;;;;;5086798;28;20511;-81
2022/12/24 09:26:35;;;;;;;39.75;6.00;;;8.20;99.90;;;;;;5107817;28;20112;-81
2022/12/24 09:29:02;;;;;;;38.70;5.57;;;8.20;99.90;;;;;;5087807;28;20067;-81
2022/12/24 09:31:28;;;;;;;28.10;5.80;;;8.20;99.90;;;;;;5092218;28;20561;-81
2022/12/24 09:33:55;;;;;;;33.53;7.95;;;8.20;99.90;;;;;;5103383;28;20114;-81
2022/12/24 09:36:22;;;;;;;27.33;7.05;;;8.20;99.90;;;;;;5076441;28;20036;-81
2022/12/24 09:38:50;;;;;;;44.47;7.05;;;8.30;99.90;;;;;;5089703;28;20047;-81
2022/12/24 09:41:28;;;;;;;40.67;6.07;;;8.40;99.90;;;;;;5109456;28;20047;-81
2022/12/24 09:44:02;;;;;;;49.30;7.10;;;8.40;99.90;;;;;;5118508;28;20043;-81
2022/12/24 09:46:36;;;;;;;30.35;5.13;;;8.50;99.90;;;;;;5119665;28;20537;-82
2022/12/24 09:49:23;;;;;;;37.88;6.03;;;8.50;99.90;;;;;;5109860;28;20044;-81
2022/12/24 09:52:00;;;;;;;26.17;3.90;;;8.50;99.90;;;;;;5071854;28;1113619;-81
2022/12/24 09:54:34;;;;;;;32.72;5.78;;;8.50;99.90;;;;;;5110943;28;20044;-81
2022/12/24 09:57:07;;;;;;;34.30;5.57;;;8.50;99.90;;;;;;5110779;28;20044;-81
2022/12/24 09:59:42;;;;;;;31.60;5.93;;;8.50;99.90;;;;;;5127437;28;20425;-81
2022/12/24 10:02:19;;;;;;;36.40;8.90;;;8.60;99.90;;;;;;5130852;28;20039;-82
2022/12/24 10:04:47;;;;;;;36.10;9.75;;;8.60;99.90;;;;;;5080021;28;20048;-81
2022/12/24 10:08:03;;;;;;;35.17;11.23;;;8.60;99.90;;;;;;5091907;28;20051;-81
2022/12/24 10:10:48;;;;;;;39.60;11.13;;;8.70;99.90;;;;;;5059494;28;20048;-82
2022/12/24 10:13:43;;;;;;;38.20;10.00;;;8.70;99.90;;;;;;5046001;28;20125;-81
2022/12/24 10:16:35;;;;;;;33.75;10.48;;;8.70;99.90;;;;;;5119925;28;20086;-80
2022/12/24 10:19:36;;;;;;;40.70;9.52;;;8.70;99.90;;;;;;5124258;28;20036;-82
2022/12/24 10:22:14;;;;;;;36.90;9.02;;;8.70;99.90;;;;;;5110103;28;20071;-80
2022/12/24 10:24:49;;;;;;;30.85;8.73;;;8.70;99.90;;;;;;5118936;28;20032;-81
2022/12/24 10:27:20;;;;;;;44.45;11.20;;;8.70;99.90;;;;;;5135454;28;20477;-80
2022/12/24 10:29:51;;;;;;;44.80;10.80;;;8.70;99.90;;;;;;5120016;28;20031;-81
2022/12/24 10:32:23;;;;;;;36.95;12.57;;;8.70;99.90;;;;;;5109794;28;20040;-81
2022/12/24 10:34:58;;;;;;;39.47;14.10;;;8.80;99.90;;;;;;5109930;28;20039;-81
2022/12/24 10:37:27;;;;;;;32.72;10.23;;;8.80;99.90;;;;;;5126597;28;20105;-80
2022/12/24 10:39:59;;;;;;;32.40;8.63;;;8.80;99.90;;;;;;5109919;28;20097;-80
2022/12/24 10:42:41;;;;;;;38.83;7.15;;;8.80;99.90;;;;;;5111530;28;20126;-81
2022/12/24 10:45:14;;;;;;;39.67;9.05;;;8.80;99.90;;;;;;5113772;28;20039;-81
2022/12/24 10:47:44;;;;;;;36.10;7.80;;;8.90;99.90;;;;;;5130566;28;20046;-81
2022/12/24 10:50:32;;;;;;;38.42;8.75;;;8.90;99.90;;;;;;5129561;28;20047;-81
2022/12/24 10:53:40;;;;;;;38.88;10.75;;;8.90;99.90;;;;;;5089491;28;20098;-82
2022/12/24 10:56:12;;;;;;;34.60;9.00;;;9.00;99.90;;;;;;5067788;28;20486;-81
2022/12/24 10:58:44;;;;;;;42.63;7.80;;;9.00;99.90;;;;;;5101654;28;20040;-81
2022/12/24 11:01:12;;;;;;;33.20;6.07;;;8.90;99.90;;;;;;5093769;28;20397;-81
2022/12/24 11:03:39;;;;;;;35.35;5.85;;;8.90;99.90;;;;;;5092073;28;20043;-81
2022/12/24 11:06:12;;;;;;;25.98;4.95;;;9.00;99.90;;;;;;5095705;28;20037;-81
2022/12/24 11:08:42;;;;;;;26.08;4.68;;;9.00;99.90;;;;;;5118619;28;20032;-81
2022/12/24 11:11:15;;;;;;;25.90;4.60;;;9.10;99.90;;;;;;5127897;28;20036;-80
2022/12/24 11:13:56;;;;;;;27.52;5.00;;;9.10;99.90;;;;;;5109101;28;20074;-81
2022/12/24 11:16:30;;;;;;;23.92;4.75;;;9.10;99.90;;;;;;5110555;28;20040;-81
2022/12/24 11:19:00;;;;;;;25.90;6.72;;;9.10;99.90;;;;;;5126587;28;20040;-81
2022/12/24 11:21:30;;;;;;;28.33;7.03;;;9.10;99.90;;;;;;5129046;28;20038;-81
2022/12/24 11:24:17;;;;;;;32.53;7.03;;;9.20;99.90;;;;;;5114997;28;20111;-81
2022/12/24 11:26:44;;;;;;;27.58;6.72;;;9.20;99.90;;;;;;5109004;28;20735;-81
2022/12/24 11:29:13;;;;;;;20.85;5.55;;;9.20;99.90;;;;;;5075664;28;20040;-81
2022/12/24 11:31:42;;;;;;;25.52;5.53;;;9.20;99.90;;;;;;5106917;28;20047;-81
2022/12/24 11:34:31;;;;;;;24.33;4.07;;;9.20;99.90;;;;;;5088675;28;20119;-81
2022/12/24 11:37:20;;;;;;;17.48;3.45;;;9.20;99.90;;;;;;5114832;28;20101;-80
2022/12/24 11:39:53;;;;;;;21.30;4.57;;;9.20;99.90;;;;;;5123982;28;20045;-80
2022/12/24 11:42:38;;;;;;;23.40;4.22;;;9.20;99.90;;;;;;5108231;28;20040;-80
2022/12/24 11:45:16;;;;;;;23.42;3.83;;;9.20;99.90;;;;;;5108693;28;20063;-81
2022/12/24 11:47:43;;;;;;;16.77;3.35;;;9.20;99.90;;;;;;5108773;28;20036;-80
2022/12/24 11:50:20;;;;;;;26.65;4.20;;;9.20;99.90;;;;;;5091861;28;20109;-81
2022/12/24 11:52:54;;;;;;;24.33;4.75;;;9.30;99.90;;;;;;5104256;28;20131;-80
2022/12/24 11:55:39;;;;;;;27.92;6.40;;;9.30;99.90;;;;;;5099128;28;20040;-81
2022/12/24 11:58:25;;;;;;;24.55;4.85;;;9.30;99.90;;;;;;5088184;28;20051;-81
2022/12/24 12:01:02;;;;;;;23.67;4.03;;;9.30;99.90;;;;;;5088358;28;20044;-81
2022/12/24 12:03:34;;;;;;;29.80;4.95;;;9.30;99.90;;;;;;5088167;28;20087;-81
2022/12/24 12:06:06;;;;;;;19.77;3.90;;;9.30;99.90;;;;;;5104998;28;20049;-80
2022/12/24 12:08:35;;;;;;;23.83;4.90;;;9.30;99.90;;;;;;5105173;28;20044;-81
2022/12/24 12:11:11;;;;;;;22.80;5.05;;;9.30;99.90;;;;;;5071834;28;20408;-80
2022/12/24 12:13:39;;;;;;;;;;;9.30;99.90;;;;;;5117263;28;20042;-82
2022/12/24 12:16:18;;;;;;;22.95;5.05;;;9.20;99.90;;;;;;5122925;28;19923;-81
2022/12/24 12:18:55;;;;;;;24.55;6.03;;;9.20;99.90;;;;;;5092063;28;20056;-81
2022/12/24 12:21:27;;;;;;;31.27;7.05;;;9.20;99.90;;;;;;5097784;28;20032;-81
2022/12/24 12:24:02;;;;;;;33.08;7.40;;;9.20;99.90;;;;;;5109246;28;20047;-81
2022/12/24 12:26:31;;;;;;;33.05;7.97;;;9.20;99.90;;;;;;5124298;28;20044;-81
2022/12/24 12:29:14;;;;;;;27.83;5.75;;;9.20;99.90;;;;;;5125295;28;20040;-81
2022/12/24 12:31:47;;;;;;;16.20;3.83;;;9.10;99.90;;;;;;5125054;28;20123;-81
2022/12/24 12:34:27;;;;;;;24.52;4.30;;;9.20;99.90;;;;;;5140037;28;20064;-81
2022/12/24 12:36:59;;;;;;;19.90;3.25;;;9.10;99.90;;;;;;5106123;28;20056;-83
2022/12/24 12:39:26;;;;;;;28.45;3.67;;;9.10;99.90;;;;;;5100938;28;20036;-81
2022/12/24 12:42:37;;;;;;;20.15;3.42;;;9.10;99.90;;;;;;5093750;28;20407;-84
2022/12/24 12:45:12;;;;;;;23.42;2.80;;;9.10;99.90;;;;;;5087445;28;20057;-81
2022/12/24 12:47:42;;;;;;;27.80;3.60;;;9.10;99.90;;;;;;5120284;28;20034;-81
2022/12/24 12:50:33;;;;;;;21.27;3.75;;;9.10;99.90;;;;;;5145121;28;20032;-81
2022/12/24 12:53:22;;;;;;;27.60;4.47;;;9.10;99.90;;;;;;5111706;28;20121;-81
2022/12/24 12:55:58;;;;;;;26.20;5.25;;;9.10;99.90;;;;;;5122726;28;20562;-81
2022/12/24 12:58:28;;;;;;;26.13;4.97;;;9.10;99.90;;;;;;5091139;28;20040;-81
2022/12/24 13:01:02;;;;;;;21.73;4.47;;;9.10;99.90;;;;;;5091118;28;20590;-81
2022/12/24 13:03:34;;;;;;;18.42;3.78;;;9.10;99.90;;;;;;5090887;28;20158;-81
2022/12/24 13:06:55;;;;;;;25.52;3.28;;;9.10;99.90;;;;;;5091759;28;20038;-81
2022/12/24 13:09:38;;;;;;;22.45;3.00;;;9.10;99.90;;;;;;5042958;28;20048;-81
2022/12/24 13:12:04;;;;;;;20.45;3.92;;;9.00;99.90;;;;;;5111389;28;20074;-81